Time;durP1;ratioP1;P1;durP2;ratioP2;P2;SDS_P1;SDS_P2;PMS_P1;PMS_P2;Temp;Humidity;BMP_temperature;BMP_pressure;BME280_temperature;BME280_humidity;BME280_pressure;Samples;Min_cycle;Max_cycle;Signal;HPM_P1;HPM_P2
2023/08/25 00:01:34;;;;;;;30.30;27.60;;;20.00;99.90;;;;;;5029395;28;20053;-65
2023/08/25 00:03:59;;;;;;;30.33;27.52;;;20.00;99.90;;;;;;5012839;28;20712;-66
2023/08/25 00:06:25;;;;;;;30.45;27.48;;;19.90;99.90;;;;;;5029999;28;20710;-65
2023/08/25 00:08:51;;;;;;;33.63;29.80;;;19.90;99.90;;;;;;5011869;28;20044;-66
2023/08/25 00:11:16;;;;;;;33.40;30.15;;;20.00;99.90;;;;;;4994159;28;20044;-65
2023/08/25 00:13:42;;;;;;;34.38;31.02;;;19.90;99.90;;;;;;5011906;28;20079;-65
2023/08/25 00:16:09;;;;;;;36.58;32.83;;;19.80;99.90;;;;;;4995491;28;20132;-65
2023/08/25 00:18:35;;;;;;;34.47;31.02;;;19.70;99.90;;;;;;4993952;28;20102;-65
2023/08/25 00:21:00;;;;;;;37.33;33.53;;;19.80;99.90;;;;;;5010116;28;20458;-65
2023/08/25 00:23:26;;;;;;;38.50;34.60;;;19.70;99.90;;;;;;4953324;28;21272;-65
2023/08/25 00:25:53;;;;;;;39.00;35.33;;;19.50;99.90;;;;;;5011905;28;20410;-65
2023/08/25 00:28:20;;;;;;;41.25;37.03;;;19.60;99.90;;;;;;5030087;28;20052;-65
2023/08/25 00:30:47;;;;;;;42.72;38.40;;;19.40;99.90;;;;;;5029181;28;20728;-65
2023/08/25 00:33:13;;;;;;;41.63;37.70;;;19.50;99.90;;;;;;5012145;28;20045;-65
2023/08/25 00:35:41;;;;;;;41.13;37.30;;;19.40;99.90;;;;;;5012102;28;20384;-64
2023/08/25 00:38:07;;;;;;;44.90;40.45;;;19.50;99.90;;;;;;5012248;28;20594;-65
2023/08/25 00:40:36;;;;;;;41.08;36.97;;;19.20;99.90;;;;;;5011770;28;20125;-65
2023/08/25 00:43:03;;;;;;;47.95;43.05;;;19.40;99.90;;;;;;5017762;28;20257;-66
2023/08/25 00:45:32;;;;;;;45.42;40.83;;;19.20;99.90;;;;;;5014237;28;20570;-64
2023/08/25 00:47:58;;;;;;;48.58;43.65;;;19.30;99.90;;;;;;4975667;28;20165;-65
2023/08/25 00:50:24;;;;;;;45.80;41.22;;;19.00;99.90;;;;;;5033658;28;20526;-65
2023/08/25 00:52:50;;;;;;;49.55;44.33;;;19.20;99.90;;;;;;5015461;28;20318;-64
2023/08/25 00:55:15;;;;;;;49.08;43.95;;;19.10;99.90;;;;;;4998869;28;20296;-65
2023/08/25 00:57:41;;;;;;;51.35;45.72;;;19.20;99.90;;;;;;4989145;28;20865;-65
2023/08/25 01:00:09;;;;;;;49.17;44.17;;;19.00;99.90;;;;;;4997377;28;20330;-65
2023/08/25 01:02:35;;;;;;;50.22;44.95;;;19.00;99.90;;;;;;4992197;28;20088;-64
2023/08/25 01:05:01;;;;;;;50.30;45.10;;;19.10;99.90;;;;;;5032503;28;20043;-64
2023/08/25 01:07:27;;;;;;;51.35;45.97;;;19.10;99.90;;;;;;5015137;28;20029;-65
2023/08/25 01:09:54;;;;;;;51.40;46.22;;;18.90;99.90;;;;;;4998316;28;20049;-65
2023/08/25 01:12:33;;;;;;;54.13;48.30;;;19.00;99.90;;;;;;5032741;28;20119;-65
2023/08/25 01:15:13;;;;;;;54.38;48.75;;;19.00;99.90;;;;;;5005638;28;20094;-65
2023/08/25 01:17:50;;;;;;;54.17;48.45;;;18.90;99.90;;;;;;5021451;28;20128;-65
2023/08/25 01:20:18;;;;;;;57.08;51.00;;;19.00;99.90;;;;;;5032975;28;20052;-65
2023/08/25 01:22:50;;;;;;;60.83;54.00;;;18.90;99.90;;;;;;5015591;28;20056;-65
2023/08/25 01:25:26;;;;;;;67.18;57.75;;;18.70;99.90;;;;;;5014902;28;20048;-65
2023/08/25 01:28:00;;;;;;;62.38;54.17;;;18.90;99.90;;;;;;5032917;28;20525;-65
2023/08/25 01:30:27;;;;;;;60.72;53.83;;;19.00;99.90;;;;;;5015052;28;20049;-65
2023/08/25 01:32:54;;;;;;;59.20;52.85;;;18.60;99.90;;;;;;5032402;28;20045;-66
2023/08/25 01:35:45;;;;;;;58.17;51.95;;;18.60;99.90;;;;;;5014411;28;20044;-65
2023/08/25 01:38:23;;;;;;;60.40;51.53;;;18.50;99.90;;;;;;5000669;28;20572;-65
2023/08/25 01:41:10;;;;;;;59.42;53.28;;;18.60;99.90;;;;;;4997053;28;20076;-65
2023/08/25 01:43:39;;;;;;;61.10;54.50;;;18.60;99.90;;;;;;5013761;28;20036;-66
2023/08/25 01:46:09;;;;;;;59.67;53.38;;;18.70;99.90;;;;;;4993573;28;20049;-65
2023/08/25 01:48:38;;;;;;;58.60;52.30;;;18.90;99.90;;;;;;5032524;28;20045;-65
2023/08/25 01:51:04;;;;;;;58.55;52.20;;;18.80;99.90;;;;;;4997795;28;20059;-65
2023/08/25 01:53:31;;;;;;;60.92;53.13;;;18.70;99.90;;;;;;5013821;28;20696;-65
2023/08/25 01:55:56;;;;;;;57.70;51.30;;;19.10;99.90;;;;;;5013573;28;20208;-65
2023/08/25 01:58:22;;;;;;;58.40;52.08;;;19.00;99.90;;;;;;5012514;28;20224;-65
2023/08/25 02:00:48;;;;;;;60.10;53.53;;;19.20;99.90;;;;;;5014207;28;20317;-65
2023/08/25 02:03:14;;;;;;;59.88;53.33;;;19.00;99.90;;;;;;5031810;28;20139;-64
2023/08/25 02:05:41;;;;;;;57.03;50.55;;;19.00;99.90;;;;;;4997554;28;20080;-64
2023/08/25 02:08:07;;;;;;;63.50;53.00;;;18.90;99.90;;;;;;5014041;28;20048;-64
2023/08/25 02:10:33;;;;;;;59.05;52.33;;;19.00;99.90;;;;;;5013926;28;20139;-64
2023/08/25 02:12:58;;;;;;;62.63;53.85;;;19.30;99.90;;;;;;5014005;28;20029;-64
2023/08/25 02:15:24;;;;;;;66.05;56.47;;;18.90;99.90;;;;;;4997557;28;20037;-64
2023/08/25 02:17:50;;;;;;;64.50;56.72;;;19.10;99.90;;;;;;5014489;28;20037;-65
2023/08/25 02:20:16;;;;;;;67.22;57.15;;;19.00;99.90;;;;;;5031278;28;20414;-64
2023/08/25 02:22:42;;;;;;;67.35;58.38;;;18.90;99.90;;;;;;4996368;28;20131;-65
2023/08/25 02:25:08;;;;;;;66.03;58.38;;;19.20;99.90;;;;;;5013026;28;20280;-64
2023/08/25 02:27:34;;;;;;;64.97;56.60;;;19.10;99.90;;;;;;5013066;28;20544;-64
2023/08/25 02:30:00;;;;;;;67.57;59.78;;;19.10;99.90;;;;;;5031355;28;20380;-64
2023/08/25 02:32:26;;;;;;;74.75;63.47;;;18.90;99.90;;;;;;5014196;28;20050;-65
2023/08/25 02:34:52;;;;;;;66.00;58.75;;;18.80;99.90;;;;;;5031552;28;20040;-64
2023/08/25 02:37:17;;;;;;;72.68;60.80;;;19.10;99.90;;;;;;5012836;28;20037;-64
2023/08/25 02:39:43;;;;;;;77.10;62.53;;;18.90;99.90;;;;;;5012813;28;20098;-64
2023/08/25 02:42:09;;;;;;;67.43;59.70;;;18.90;99.90;;;;;;5012649;28;20136;-64
2023/08/25 02:44:34;;;;;;;78.30;64.63;;;18.90;99.90;;;;;;4996010;28;20120;-65
2023/08/25 02:47:00;;;;;;;85.28;66.93;;;18.90;99.90;;;;;;5012640;28;20040;-64
2023/08/25 02:49:26;;;;;;;81.00;67.25;;;18.50;99.90;;;;;;4996548;28;20044;-65
2023/08/25 02:51:54;;;;;;;82.13;66.10;;;18.90;99.90;;;;;;5011891;28;20121;-65
2023/08/25 02:54:20;;;;;;;87.20;70.55;;;18.60;99.90;;;;;;5011894;28;20045;-64
2023/08/25 02:56:45;;;;;;;80.97;65.53;;;18.90;99.90;;;;;;5012121;28;20312;-64
2023/08/25 02:59:11;;;;;;;85.25;65.97;;;19.00;99.90;;;;;;5030511;28;20320;-65
2023/08/25 03:01:37;;;;;;;79.60;63.78;;;19.00;99.90;;;;;;5012095;28;20255;-64
2023/08/25 03:04:03;;;;;;;80.00;65.07;;;18.80;99.90;;;;;;5013226;28;20300;-64
2023/08/25 03:06:28;;;;;;;80.78;63.85;;;18.70;99.90;;;;;;5027134;28;20048;-64
2023/08/25 03:08:54;;;;;;;79.10;64.32;;;18.70;99.90;;;;;;5011649;28;20086;-64
2023/08/25 03:11:20;;;;;;;80.40;63.53;;;18.70;99.90;;;;;;5011781;28;20257;-64
2023/08/25 03:13:45;;;;;;;81.18;63.40;;;19.10;99.90;;;;;;5011293;28;20334;-64
2023/08/25 03:16:11;;;;;;;81.60;63.33;;;18.80;99.90;;;;;;4984973;28;20055;-64
2023/08/25 03:18:37;;;;;;;80.30;63.90;;;19.20;99.90;;;;;;5030459;28;20110;-64
2023/08/25 03:21:04;;;;;;;77.47;63.83;;;19.20;99.90;;;;;;5012373;28;20128;-64
2023/08/25 03:23:29;;;;;;;81.50;61.80;;;19.00;99.90;;;;;;5029508;28;20041;-64
2023/08/25 03:25:55;;;;;;;76.38;60.78;;;18.80;99.90;;;;;;5029814;28;20367;-64
2023/08/25 03:28:21;;;;;;;79.47;63.25;;;18.90;99.90;;;;;;4981879;28;20068;-65
2023/08/25 03:30:51;;;;;;;86.47;62.72;;;19.30;99.90;;;;;;5029928;28;20032;-64
2023/08/25 03:33:17;;;;;;;75.30;61.53;;;19.10;99.90;;;;;;5030349;28;20036;-64
2023/08/25 03:35:42;;;;;;;78.65;62.47;;;18.90;99.90;;;;;;5011825;28;20251;-64
2023/08/25 03:38:08;;;;;;;78.22;61.65;;;19.30;99.90;;;;;;5010992;28;20040;-64
2023/08/25 03:40:34;;;;;;;80.40;60.03;;;19.30;99.90;;;;;;5012080;28;20076;-64
2023/08/25 03:42:59;;;;;;;82.53;60.42;;;18.80;99.90;;;;;;4994853;28;20055;-64
2023/08/25 03:45:25;;;;;;;76.20;57.38;;;19.00;99.90;;;;;;5029771;28;20383;-63
2023/08/25 03:47:52;;;;;;;81.45;59.53;;;19.20;99.90;;;;;;5011849;28;20080;-64
2023/08/25 03:50:17;;;;;;;79.60;57.47;;;18.90;99.90;;;;;;5030271;28;20736;-64
2023/08/25 03:52:44;;;;;;;70.72;53.55;;;19.10;99.90;;;;;;5007723;28;20048;-64
2023/08/25 03:55:09;;;;;;;75.03;55.30;;;19.10;99.90;;;;;;5011958;28;20045;-64
2023/08/25 03:57:35;;;;;;;72.78;51.42;;;19.20;99.90;;;;;;5011108;28;20037;-65
2023/08/25 04:00:01;;;;;;;76.78;54.17;;;19.20;99.90;;;;;;5011768;28;20155;-64
2023/08/25 04:02:27;;;;;;;71.38;51.67;;;18.80;99.90;;;;;;5028870;28;20613;-64
2023/08/25 04:04:53;;;;;;;76.28;54.13;;;19.10;99.90;;;;;;5030175;28;20084;-64
2023/08/25 04:07:18;;;;;;;75.00;53.22;;;18.90;99.90;;;;;;5011030;28;20188;-64
2023/08/25 04:09:44;;;;;;;74.50;52.53;;;19.20;99.90;;;;;;4994549;28;20037;-65
2023/08/25 04:12:10;;;;;;;79.53;54.28;;;19.20;99.90;;;;;;5011264;28;20049;-64
2023/08/25 04:14:36;;;;;;;72.38;54.13;;;19.10;99.90;;;;;;5029371;28;20037;-64
2023/08/25 04:17:01;;;;;;;76.80;56.38;;;19.00;99.90;;;;;;5029973;28;20037;-64
2023/08/25 04:19:27;;;;;;;74.35;54.50;;;19.20;99.90;;;;;;5014722;28;20051;-65
2023/08/25 04:21:53;;;;;;;83.88;61.10;;;19.20;99.90;;;;;;5015333;28;20123;-64
2023/08/25 04:24:19;;;;;;;80.18;58.92;;;18.80;99.90;;;;;;5008908;28;20040;-64
2023/08/25 04:26:45;;;;;;;76.40;57.28;;;18.80;99.90;;;;;;5000844;28;20784;-64
2023/08/25 04:29:11;;;;;;;81.90;60.25;;;18.90;99.90;;;;;;5033503;28;20033;-64
2023/08/25 04:31:37;;;;;;;81.22;57.85;;;18.70;99.90;;;;;;5014934;28;20515;-65
2023/08/25 04:34:05;;;;;;;88.32;62.83;;;18.80;99.90;;;;;;5015234;28;20483;-65
2023/08/25 04:36:36;;;;;;;85.22;59.63;;;18.90;99.90;;;;;;5033089;28;20384;-64
2023/08/25 04:39:02;;;;;;;84.00;61.20;;;18.80;99.90;;;;;;5014611;28;20330;-64
2023/08/25 04:41:28;;;;;;;95.45;68.80;;;18.50;99.90;;;;;;5032661;28;20826;-65
2023/08/25 04:43:53;;;;;;;90.97;65.30;;;18.60;99.90;;;;;;5032417;28;20325;-65
2023/08/25 04:46:19;;;;;;;99.55;68.03;;;18.60;99.90;;;;;;5033389;28;20128;-63
2023/08/25 04:48:46;;;;;;;90.65;67.32;;;18.90;99.90;;;;;;5015015;28;20110;-63
2023/08/25 04:51:12;;;;;;;114.93;76.22;;;18.50;99.90;;;;;;5012518;28;20063;-64
2023/08/25 04:53:38;;;;;;;100.68;72.15;;;18.50;99.90;;;;;;5013870;28;20190;-64
2023/08/25 04:56:04;;;;;;;95.20;70.63;;;18.50;99.90;;;;;;5032013;28;20451;-65
2023/08/25 04:58:30;;;;;;;88.30;68.53;;;18.90;99.90;;;;;;5032229;28;20044;-64
2023/08/25 05:00:56;;;;;;;91.50;69.28;;;18.70;99.90;;;;;;5014594;28;20048;-65
2023/08/25 05:03:21;;;;;;;92.72;68.93;;;18.50;99.90;;;;;;5012800;28;20187;-63
2023/08/25 05:05:47;;;;;;;94.80;70.53;;;18.90;99.90;;;;;;5031838;28;20267;-64
2023/08/25 05:08:13;;;;;;;90.07;68.05;;;19.00;99.90;;;;;;5031761;28;20103;-64
2023/08/25 05:10:39;;;;;;;88.18;68.45;;;19.00;99.90;;;;;;4996835;28;20371;-64
2023/08/25 05:13:05;;;;;;;84.65;67.07;;;19.00;99.90;;;;;;4997266;28;20040;-65
2023/08/25 05:15:31;;;;;;;93.45;71.30;;;19.00;99.90;;;;;;4997290;28;20110;-65
2023/08/25 05:17:57;;;;;;;102.30;74.80;;;19.20;99.90;;;;;;4993075;28;20201;-65
2023/08/25 05:20:22;;;;;;;88.57;67.57;;;19.10;99.90;;;;;;5012861;28;20048;-65
2023/08/25 05:22:50;;;;;;;89.25;69.75;;;18.80;99.90;;;;;;4992420;28;20308;-65
2023/08/25 05:25:18;;;;;;;96.22;71.68;;;18.80;99.90;;;;;;5013613;28;20041;-65
2023/08/25 05:27:44;;;;;;;84.10;67.57;;;19.00;99.90;;;;;;4987113;28;20045;-65
2023/08/25 05:30:10;;;;;;;87.82;66.75;;;19.30;99.90;;;;;;5031408;28;20037;-65
2023/08/25 05:32:35;;;;;;;85.00;65.13;;;18.90;99.90;;;;;;5032397;28;20590;-65
2023/08/25 05:35:01;;;;;;;87.60;65.70;;;18.90;99.90;;;;;;4995274;28;20071;-65
2023/08/25 05:37:27;;;;;;;87.60;65.07;;;18.90;99.90;;;;;;5031198;28;20059;-64
2023/08/25 05:39:52;;;;;;;85.38;64.05;;;19.40;99.90;;;;;;5031520;28;20037;-65
2023/08/25 05:42:18;;;;;;;90.30;66.72;;;19.00;99.90;;;;;;5031874;28;20092;-65
2023/08/25 05:44:44;;;;;;;86.40;64.60;;;19.40;99.90;;;;;;4996887;28;20221;-65
2023/08/25 05:47:10;;;;;;;86.88;64.30;;;19.10;99.90;;;;;;4995910;28;20223;-65
2023/08/25 05:49:35;;;;;;;89.00;64.43;;;19.10;99.90;;;;;;5014192;28;20033;-64
2023/08/25 05:52:01;;;;;;;85.28;65.18;;;19.10;99.90;;;;;;4997039;28;20040;-64
2023/08/25 05:54:27;;;;;;;91.07;64.03;;;19.10;99.90;;;;;;5011162;28;20082;-65
2023/08/25 05:56:53;;;;;;;103.05;68.68;;;19.60;99.90;;;;;;5031445;28;20055;-65
2023/08/25 05:59:19;;;;;;;88.03;63.85;;;19.20;99.90;;;;;;5014511;28;20524;-65
2023/08/25 06:01:45;;;;;;;91.30;64.20;;;19.30;99.90;;;;;;5013598;28;20285;-65
2023/08/25 06:04:11;;;;;;;90.30;63.42;;;19.20;99.90;;;;;;5013955;28;20482;-65
2023/08/25 06:06:38;;;;;;;107.38;69.40;;;19.60;99.90;;;;;;5012862;28;20052;-65
2023/08/25 06:09:05;;;;;;;103.68;70.30;;;19.20;99.90;;;;;;5031849;28;20056;-65
2023/08/25 06:11:30;;;;;;;104.45;68.72;;;19.60;99.90;;;;;;5014583;28;20183;-65
2023/08/25 06:13:56;;;;;;;101.25;65.30;;;19.60;99.90;;;;;;5014432;28;20125;-65
2023/08/25 06:16:23;;;;;;;105.22;68.07;;;19.20;99.90;;;;;;5014922;28;20200;-66
2023/08/25 06:18:48;;;;;;;105.65;65.50;;;19.60;99.90;;;;;;5014799;28;20049;-66
2023/08/25 06:21:14;;;;;;;113.20;70.20;;;19.30;99.90;;;;;;5032877;28;20208;-65
2023/08/25 06:23:40;;;;;;;102.63;67.70;;;19.70;99.90;;;;;;5014522;28;20419;-65
2023/08/25 06:26:06;;;;;;;110.93;67.65;;;19.50;99.90;;;;;;5014734;28;20362;-65
2023/08/25 06:28:33;;;;;;;111.97;68.63;;;19.70;99.90;;;;;;5014896;28;20040;-65
2023/08/25 06:30:59;;;;;;;121.95;72.03;;;19.40;99.90;;;;;;5014596;28;20503;-65
2023/08/25 06:33:29;;;;;;;113.05;69.32;;;19.30;99.90;;;;;;5032384;28;20084;-66
2023/08/25 06:35:56;;;;;;;113.93;70.70;;;19.70;99.90;;;;;;5015252;28;20079;-66
2023/08/25 06:38:22;;;;;;;113.75;69.78;;;19.40;99.90;;;;;;5014141;28;20045;-66
2023/08/25 06:40:48;;;;;;;122.45;72.22;;;19.50;99.90;;;;;;5013415;28;20039;-66
2023/08/25 06:43:14;;;;;;;118.38;70.18;;;19.50;99.90;;;;;;5013883;28;20255;-65
2023/08/25 06:45:40;;;;;;;105.68;67.53;;;19.70;99.90;;;;;;5014644;28;20147;-66
2023/08/25 06:48:05;;;;;;;114.55;69.15;;;19.60;99.90;;;;;;4997909;28;20049;-66
2023/08/25 06:50:31;;;;;;;121.07;70.78;;;19.70;99.90;;;;;;4996589;28;20032;-65
2023/08/25 06:52:57;;;;;;;114.20;68.90;;;19.40;99.90;;;;;;5032210;28;20048;-64
2023/08/25 06:55:25;;;;;;;108.82;69.93;;;19.30;99.90;;;;;;5012931;28;20036;-65
2023/08/25 06:57:51;;;;;;;124.75;74.47;;;19.40;99.90;;;;;;5013837;28;20483;-65
2023/08/25 07:00:17;;;;;;;110.68;67.43;;;19.40;99.90;;;;;;5012997;28;20098;-65
2023/08/25 07:02:44;;;;;;;97.30;64.50;;;19.70;99.90;;;;;;5030487;28;20137;-65
2023/08/25 07:05:13;;;;;;;95.88;63.55;;;19.90;99.90;;;;;;5030957;28;20048;-65
2023/08/25 07:07:38;;;;;;;88.97;60.30;;;20.00;99.90;;;;;;5030570;28;20041;-65
2023/08/25 07:10:05;;;;;;;80.22;57.15;;;20.00;99.90;;;;;;5012865;28;20048;-65
2023/08/25 07:12:30;;;;;;;74.45;54.22;;;20.10;99.90;;;;;;5030660;28;20045;-65
2023/08/25 07:14:56;;;;;;;76.75;52.50;;;20.00;99.90;;;;;;5013163;28;20041;-65
2023/08/25 07:17:22;;;;;;;66.97;49.30;;;20.20;99.90;;;;;;5004624;28;20037;-65
2023/08/25 07:19:48;;;;;;;66.70;48.67;;;20.10;99.90;;;;;;5012928;28;20076;-64
2023/08/25 07:22:14;;;;;;;60.00;46.53;;;20.20;99.90;;;;;;5030574;28;20124;-65
2023/08/25 07:24:39;;;;;;;58.95;46.67;;;20.40;99.90;;;;;;5012293;28;20072;-66
2023/08/25 07:27:05;;;;;;;63.10;47.97;;;20.30;99.90;;;;;;4996322;28;20345;-67
2023/08/25 07:29:34;;;;;;;53.78;40.17;;;20.50;99.90;;;;;;5012891;28;20430;-65
2023/08/25 07:32:00;;;;;;;45.25;37.42;;;20.60;99.90;;;;;;5030128;28;20036;-65
2023/08/25 07:34:26;;;;;;;53.42;38.00;;;20.60;99.90;;;;;;5030281;28;20037;-65
2023/08/25 07:36:53;;;;;;;41.10;35.45;;;20.80;99.90;;;;;;5012098;28;20518;-64
2023/08/25 07:39:19;;;;;;;28.70;23.33;;;21.20;99.90;;;;;;5012656;28;20559;-65
2023/08/25 07:41:45;;;;;;;25.13;19.80;;;21.20;99.90;;;;;;5030341;28;20041;-65
2023/08/25 07:44:10;;;;;;;25.25;20.45;;;21.20;99.90;;;;;;4997986;28;20056;-65
2023/08/25 07:46:38;;;;;;;24.70;19.98;;;21.20;99.90;;;;;;5013121;28;20165;-65
2023/08/25 07:49:07;;;;;;;26.15;20.73;;;21.10;99.90;;;;;;5012584;28;20500;-64
2023/08/25 07:51:37;;;;;;;21.95;18.58;;;21.30;99.90;;;;;;5030852;28;20598;-65
2023/08/25 07:54:04;;;;;;;23.73;17.55;;;21.20;99.90;;;;;;5017312;28;20353;-65
2023/08/25 07:56:29;;;;;;;23.73;18.25;;;21.50;99.90;;;;;;5037133;28;20041;-66
2023/08/25 07:58:55;;;;;;;21.60;17.08;;;21.40;99.90;;;;;;5037341;28;20040;-65
2023/08/25 08:01:21;;;;;;;24.25;18.42;;;21.30;99.90;;;;;;5037003;28;20094;-65
2023/08/25 08:03:47;;;;;;;19.80;16.73;;;21.50;99.90;;;;;;5037882;28;20045;-65
2023/08/25 08:06:12;;;;;;;22.90;17.88;;;21.60;99.90;;;;;;5018463;28;20104;-65
2023/08/25 08:08:38;;;;;;;22.23;16.80;;;21.70;99.90;;;;;;5018078;28;20366;-65
2023/08/25 08:11:04;;;;;;;26.08;18.63;;;21.70;99.90;;;;;;5037776;28;20045;-64
2023/08/25 08:13:30;;;;;;;23.38;17.40;;;21.70;99.90;;;;;;5022754;28;20041;-64
2023/08/25 08:15:56;;;;;;;18.73;16.15;;;21.60;99.90;;;;;;5040214;28;20104;-63
2023/08/25 08:18:22;;;;;;;22.10;17.02;;;21.60;99.90;;;;;;5021190;28;20032;-63
2023/08/25 08:20:48;;;;;;;20.88;16.90;;;21.60;99.90;;;;;;5021032;28;20615;-65
2023/08/25 08:23:14;;;;;;;20.95;15.45;;;21.50;99.90;;;;;;5021026;28;20040;-65
2023/08/25 08:25:41;;;;;;;17.85;13.80;;;21.50;99.90;;;;;;5040231;28;20064;-64
2023/08/25 08:28:08;;;;;;;18.42;14.48;;;21.50;99.90;;;;;;5022065;28;20048;-64
2023/08/25 08:30:35;;;;;;;21.77;15.43;;;21.60;99.90;;;;;;5006318;28;20044;-63
2023/08/25 08:33:00;;;;;;;16.27;13.45;;;21.50;99.90;;;;;;5021197;28;20106;-64
2023/08/25 08:35:27;;;;;;;17.58;14.07;;;21.60;99.90;;;;;;5021124;28;20040;-64
2023/08/25 08:37:53;;;;;;;19.42;14.85;;;21.80;99.90;;;;;;5038109;28;20049;-65
2023/08/25 08:40:20;;;;;;;16.42;13.70;;;21.90;99.90;;;;;;5020961;28;20441;-64
2023/08/25 08:42:49;;;;;;;19.48;13.57;;;22.50;99.90;;;;;;5038978;28;20110;-65
2023/08/25 08:45:17;;;;;;;18.40;12.52;;;22.80;99.90;;;;;;5038889;28;20145;-65
2023/08/25 08:47:43;;;;;;;15.23;11.65;;;23.00;99.90;;;;;;5037901;28;20052;-65
2023/08/25 08:50:10;;;;;;;18.92;12.57;;;22.90;99.90;;;;;;5004526;28;20049;-65
2023/08/25 08:52:35;;;;;;;17.38;13.10;;;22.90;99.90;;;;;;5020634;28;20041;-65
2023/08/25 08:55:05;;;;;;;18.38;13.07;;;23.00;99.90;;;;;;5021852;28;20067;-64
2023/08/25 08:57:30;;;;;;;17.70;10.98;;;23.10;99.90;;;;;;5038374;28;20469;-65
2023/08/25 08:59:59;;;;;;;17.40;10.68;;;23.70;99.90;;;;;;5020560;28;20045;-65
2023/08/25 09:02:29;;;;;;;15.48;10.68;;;24.30;99.90;;;;;;5038920;28;20044;-64
2023/08/25 09:04:58;;;;;;;14.73;10.35;;;24.50;99.90;;;;;;5002720;28;20053;-64
2023/08/25 09:07:27;;;;;;;13.98;10.75;;;24.70;99.90;;;;;;5035718;28;20033;-64
2023/08/25 09:09:53;;;;;;;14.63;10.40;;;24.40;99.90;;;;;;5036103;28;20498;-63
2023/08/25 09:12:20;;;;;;;14.65;10.45;;;24.20;99.90;;;;;;5035418;28;20048;-65
2023/08/25 09:14:46;;;;;;;14.98;10.75;;;24.10;99.90;;;;;;5035731;28;20161;-64
2023/08/25 09:17:14;;;;;;;12.60;11.30;;;23.90;99.90;;;;;;5035367;28;20043;-64
2023/08/25 09:19:40;;;;;;;15.38;11.43;;;23.80;99.90;;;;;;5018053;28;20037;-64
2023/08/25 09:22:11;;;;;;;21.40;13.32;;;23.60;99.90;;;;;;5019094;28;20048;-64
2023/08/25 09:24:37;;;;;;;16.77;13.10;;;23.40;99.90;;;;;;5036377;28;20051;-64
2023/08/25 09:27:03;;;;;;;21.17;15.25;;;23.20;99.90;;;;;;5036561;28;20201;-66
2023/08/25 09:29:44;;;;;;;21.65;15.00;;;23.30;99.90;;;;;;5035766;28;20896;-64
2023/08/25 09:32:22;;;;;;;16.58;14.27;;;23.30;99.90;;;;;;5018437;28;20032;-64
2023/08/25 09:34:49;;;;;;;18.05;13.75;;;23.10;99.90;;;;;;5018808;28;20080;-64
2023/08/25 09:37:15;;;;;;;22.15;16.52;;;22.80;99.90;;;;;;5010188;28;21008;-65
2023/08/25 09:39:43;;;;;;;17.08;15.27;;;22.70;99.90;;;;;;5018104;28;20136;-65
2023/08/25 09:42:09;;;;;;;19.77;14.45;;;22.70;99.90;;;;;;5035695;28;20119;-65
2023/08/25 09:44:34;;;;;;;22.10;14.73;;;22.60;99.90;;;;;;5036228;28;20047;-65
2023/08/25 09:47:01;;;;;;;18.90;14.75;;;22.40;99.90;;;;;;5033997;28;20534;-65
2023/08/25 09:49:40;;;;;;;21.10;16.65;;;22.30;99.90;;;;;;5012617;28;20108;-65
2023/08/25 09:52:07;;;;;;;18.60;14.75;;;22.20;99.90;;;;;;5016996;28;20542;-65
2023/08/25 09:54:36;;;;;;;18.70;14.05;;;22.10;99.90;;;;;;5016325;28;20136;-66
2023/08/25 09:57:02;;;;;;;15.73;11.57;;;22.00;99.90;;;;;;5033523;28;20502;-65
2023/08/25 09:59:28;;;;;;;18.33;13.48;;;21.90;99.90;;;;;;5032180;28;20168;-65
2023/08/25 10:01:54;;;;;;;16.48;11.90;;;21.90;99.90;;;;;;5031816;28;20060;-66
2023/08/25 10:04:21;;;;;;;17.98;11.88;;;22.00;99.90;;;;;;5031501;28;20060;-65
2023/08/25 10:06:47;;;;;;;17.50;12.18;;;22.10;99.90;;;;;;5030379;28;20068;-66
2023/08/25 10:09:13;;;;;;;17.73;11.30;;;22.40;99.90;;;;;;5031245;28;20141;-65
2023/08/25 10:11:42;;;;;;;15.82;10.93;;;22.80;99.90;;;;;;5004407;28;20125;-65
2023/08/25 10:14:10;;;;;;;14.43;10.82;;;23.20;99.90;;;;;;5013419;28;20049;-65
2023/08/25 10:16:51;;;;;;;15.23;10.57;;;23.60;99.90;;;;;;5031002;28;20818;-66
2023/08/25 10:19:24;;;;;;;16.17;10.88;;;24.20;99.90;;;;;;5013693;28;20298;-66
2023/08/25 10:21:51;;;;;;;14.30;10.50;;;24.70;99.90;;;;;;5013132;28;20465;-65
2023/08/25 10:24:22;;;;;;;15.10;11.98;;;24.90;99.90;;;;;;5013027;28;20048;-66
2023/08/25 10:26:49;;;;;;;19.70;12.35;;;25.10;99.90;;;;;;5031163;28;20077;-66
2023/08/25 10:29:21;;;;;;;14.55;12.15;;;24.90;99.90;;;;;;5030853;28;20045;-66
2023/08/25 10:32:04;;;;;;;19.33;13.80;;;24.60;99.90;;;;;;4971579;28;20169;-66
2023/08/25 10:34:44;;;;;;;17.70;12.35;;;24.30;99.90;;;;;;5008230;28;20163;-66
2023/08/25 10:37:41;;;;;;;15.25;11.25;;;24.00;99.90;;;;;;5033833;28;20483;-65
2023/08/25 10:40:39;;;;;;;17.15;13.57;;;23.70;99.90;;;;;;5014259;28;20143;-65
2023/08/25 10:43:05;;;;;;;17.17;13.85;;;23.50;99.90;;;;;;5013720;28;20155;-66
2023/08/25 10:45:35;;;;;;;16.90;13.80;;;23.40;99.90;;;;;;5013817;28;20052;-66
2023/08/25 10:48:01;;;;;;;18.55;14.13;;;23.30;99.90;;;;;;5032593;28;20041;-66
2023/08/25 10:50:27;;;;;;;21.98;14.27;;;23.20;99.90;;;;;;4998707;28;20557;-66
2023/08/25 10:52:54;;;;;;;15.73;12.48;;;23.10;99.90;;;;;;5033229;28;20049;-65
2023/08/25 10:55:29;;;;;;;19.13;13.80;;;22.90;99.90;;;;;;5014733;28;20229;-66
2023/08/25 10:58:04;;;;;;;14.52;11.63;;;22.80;99.90;;;;;;4994260;28;20048;-65
2023/08/25 11:00:43;;;;;;;19.75;14.27;;;22.70;99.90;;;;;;5013579;28;20306;-66
2023/08/25 11:03:08;;;;;;;16.23;14.60;;;22.50;99.90;;;;;;5031588;28;20408;-66
2023/08/25 11:05:34;;;;;;;20.73;15.57;;;22.40;99.90;;;;;;5032805;28;20072;-66
2023/08/25 11:08:27;;;;;;;19.00;16.17;;;22.30;99.90;;;;;;5030732;28;20041;-65
2023/08/25 11:11:12;;;;;;;22.42;17.42;;;22.20;99.90;;;;;;5027247;28;20052;-66
2023/08/25 11:13:39;;;;;;;26.25;17.83;;;22.10;99.90;;;;;;5013821;28;20576;-66
2023/08/25 11:16:13;;;;;;;20.35;16.77;;;21.90;99.90;;;;;;5013282;28;20052;-65
2023/08/25 11:18:41;;;;;;;22.45;18.65;;;21.80;99.90;;;;;;5008500;28;20044;-65
2023/08/25 11:21:06;;;;;;;25.90;19.55;;;21.70;99.90;;;;;;5012199;28;20049;-66
2023/08/25 11:23:50;;;;;;;21.65;18.58;;;21.70;99.90;;;;;;5012265;28;20510;-66
2023/08/25 11:26:17;;;;;;;23.95;19.40;;;21.80;99.90;;;;;;5012629;28;20661;-65
2023/08/25 11:28:45;;;;;;;24.63;19.60;;;21.70;99.90;;;;;;5011069;28;20041;-65
2023/08/25 11:31:12;;;;;;;25.45;21.10;;;21.70;99.90;;;;;;5029182;28;20295;-65
2023/08/25 11:33:39;;;;;;;26.88;21.77;;;21.70;99.90;;;;;;4996723;28;20142;-65
2023/08/25 11:36:05;;;;;;;26.23;21.80;;;21.80;99.90;;;;;;5013212;28;20044;-65
2023/08/25 11:38:31;;;;;;;24.95;20.88;;;21.80;99.90;;;;;;5013523;28;20080;-65
2023/08/25 11:41:03;;;;;;;30.92;23.42;;;21.80;99.90;;;;;;5031198;28;20522;-66
2023/08/25 11:43:32;;;;;;;26.35;21.20;;;21.80;99.90;;;;;;5030920;28;20044;-65
2023/08/25 11:46:00;;;;;;;26.00;21.85;;;21.70;99.90;;;;;;5013425;28;20044;-65
2023/08/25 11:48:28;;;;;;;24.83;20.75;;;21.70;99.90;;;;;;5031157;28;20041;-65
2023/08/25 11:50:54;;;;;;;22.40;19.30;;;21.80;99.90;;;;;;5030668;28;20036;-64
2023/08/25 11:53:20;;;;;;;24.05;21.17;;;21.70;99.90;;;;;;5013199;28;20099;-65
2023/08/25 11:56:05;;;;;;;23.48;19.95;;;21.80;99.90;;;;;;5013667;28;20037;-65
2023/08/25 11:58:36;;;;;;;25.95;20.73;;;21.90;99.90;;;;;;5030714;28;20434;-65
2023/08/25 12:01:06;;;;;;;27.15;20.65;;;21.90;99.90;;;;;;4982768;28;20052;-65
2023/08/25 12:03:44;;;;;;;26.48;20.10;;;22.00;99.90;;;;;;5014549;28;20143;-65
2023/08/25 12:06:12;;;;;;;30.33;19.50;;;22.00;99.90;;;;;;5016271;28;20060;-65
2023/08/25 12:08:40;;;;;;;27.98;19.98;;;22.10;99.90;;;;;;5015826;28;20474;-64
2023/08/25 12:11:07;;;;;;;29.42;20.10;;;22.50;99.90;;;;;;4998668;28;20127;-65
2023/08/25 12:13:37;;;;;;;24.42;20.48;;;22.90;99.90;;;;;;5010120;28;20366;-65
2023/08/25 12:16:04;;;;;;;25.35;20.65;;;23.60;99.90;;;;;;5011585;28;20119;-65
2023/08/25 12:18:35;;;;;;;23.85;19.65;;;24.10;99.90;;;;;;5029674;28;20138;-64
2023/08/25 12:21:06;;;;;;;21.60;18.80;;;24.20;99.90;;;;;;5013058;28;20124;-66
2023/08/25 12:23:36;;;;;;;20.80;17.00;;;24.10;99.90;;;;;;5029654;28;20049;-65
2023/08/25 12:26:04;;;;;;;21.67;15.93;;;24.00;99.90;;;;;;5030430;28;20041;-65
2023/08/25 12:28:31;;;;;;;22.40;17.88;;;23.80;99.90;;;;;;5029551;28;20299;-65